sensor_id;sensor_type;location;lat;lon;timestamp;temperature;humidity
54516;DHT22;40422;45.892;4.738;2023-10-13T03:00:41;14.80;99.90
54516;DHT22;40422;45.892;4.738;2023-10-13T03:03:07;14.70;99.90
54516;DHT22;40422;45.892;4.738;2023-10-13T03:05:36;14.70;99.90
54516;DHT22;40422;45.892;4.738;2023-10-13T03:08:05;14.70;99.90
54516;DHT22;40422;45.892;4.738;2023-10-13T03:10:32;14.60;99.90
54516;DHT22;40422;45.892;4.738;2023-10-13T03:12:58;14.60;99.90
54516;DHT22;40422;45.892;4.738;2023-10-13T03:15:24;14.60;99.90
54516;DHT22;40422;45.892;4.738;2023-10-13T03:17:56;14.60;99.90
54516;DHT22;40422;45.892;4.738;2023-10-13T03:20:24;14.60;99.90
54516;DHT22;40422;45.892;4.738;2023-10-13T03:22:57;14.60;99.90
54516;DHT22;40422;45.892;4.738;2023-10-13T03:25:23;14.60;99.90
54516;DHT22;40422;45.892;4.738;2023-10-13T03:27:56;14.60;99.90
54516;DHT22;40422;45.892;4.738;2023-10-13T03:30:22;14.70;99.90
54516;DHT22;40422;45.892;4.738;2023-10-13T03:32:55;14.80;99.90
54516;DHT22;40422;45.892;4.738;2023-10-13T03:35:22;14.80;99.90
54516;DHT22;40422;45.892;4.738;2023-10-13T03:37:54;14.90;99.90
54516;DHT22;40422;45.892;4.738;2023-10-13T03:40:21;14.90;99.90
54516;DHT22;40422;45.892;4.738;2023-10-13T03:45:45;14.90;99.90
54516;DHT22;40422;45.892;4.738;2023-10-13T03:48:20;15.00;99.90
54516;DHT22;40422;45.892;4.738;2023-10-13T03:50:53;15.00;99.90
54516;DHT22;40422;45.892;4.738;2023-10-13T03:53:27;15.00;99.90
54516;DHT22;40422;45.892;4.738;2023-10-13T03:56:05;14.90;99.90
54516;DHT22;40422;45.892;4.738;2023-10-13T03:58:36;15.00;99.90
54516;DHT22;40422;45.892;4.738;2023-10-13T04:01:04;15.00;99.90
54516;DHT22;40422;45.892;4.738;2023-10-13T04:03:31;15.00;99.90
54516;DHT22;40422;45.892;4.738;2023-10-13T04:06:04;15.00;99.90
54516;DHT22;40422;45.892;4.738;2023-10-13T04:08:32;15.00;99.90
54516;DHT22;40422;45.892;4.738;2023-10-13T04:11:13;15.00;99.90
54516;DHT22;40422;45.892;4.738;2023-10-13T04:13:58;15.10;99.90
54516;DHT22;40422;45.892;4.738;2023-10-13T04:16:42;15.10;99.90
54516;DHT22;40422;45.892;4.738;2023-10-13T04:19:18;15.20;99.90
54516;DHT22;40422;45.892;4.738;2023-10-13T04:21:50;15.20;99.90
54516;DHT22;40422;45.892;4.738;2023-10-13T04:24:26;15.30;99.90
54516;DHT22;40422;45.892;4.738;2023-10-13T04:27:01;15.30;99.90
54516;DHT22;40422;45.892;4.738;2023-10-13T04:30:05;15.40;99.90
54516;DHT22;40422;45.892;4.738;2023-10-13T04:32:33;15.40;99.90
54516;DHT22;40422;45.892;4.738;2023-10-13T04:35:04;15.50;99.90
54516;DHT22;40422;45.892;4.738;2023-10-13T04:37:44;15.50;99.90
54516;DHT22;40422;45.892;4.738;2023-10-13T04:40:18;15.50;99.90
54516;DHT22;40422;45.892;4.738;2023-10-13T04:42:51;15.50;99.90
54516;DHT22;40422;45.892;4.738;2023-10-13T04:45:23;15.60;99.90
54516;DHT22;40422;45.892;4.738;2023-10-13T04:48:00;15.60;99.90
54516;DHT22;40422;45.892;4.738;2023-10-13T04:50:45;15.60;99.90
54516;DHT22;40422;45.892;4.738;2023-10-13T04:53:17;15.70;99.90
54516;DHT22;40422;45.892;4.738;2023-10-13T04:55:56;15.70;99.90
54516;DHT22;40422;45.892;4.738;2023-10-13T04:58:27;15.80;99.90
54516;DHT22;40422;45.892;4.738;2023-10-13T05:01:00;15.80;99.90
54516;DHT22;40422;45.892;4.738;2023-10-13T05:03:44;15.90;99.90
54516;DHT22;40422;45.892;4.738;2023-10-13T05:06:28;16.00;99.90
54516;DHT22;40422;45.892;4.738;2023-10-13T05:09:09;16.10;99.90
54516;DHT22;40422;45.892;4.738;2023-10-13T05:11:54;16.10;99.90
54516;DHT22;40422;45.892;4.738;2023-10-13T05:14:39;16.10;99.90
54516;DHT22;40422;45.892;4.738;2023-10-13T05:17:23;16.10;99.90
54516;DHT22;40422;45.892;4.738;2023-10-13T05:20:08;16.10;99.90
54516;DHT22;40422;45.892;4.738;2023-10-13T05:22:52;16.10;99.90
54516;DHT22;40422;45.892;4.738;2023-10-13T05:25:37;16.10;99.90
54516;DHT22;40422;45.892;4.738;2023-10-13T05:28:22;16.10;99.90
54516;DHT22;40422;45.892;4.738;2023-10-13T05:31:07;16.10;99.90
54516;DHT22;40422;45.892;4.738;2023-10-13T05:33:51;16.20;99.90
54516;DHT22;40422;45.892;4.738;2023-10-13T05:36:35;16.20;99.90
54516;DHT22;40422;45.892;4.738;2023-10-13T05:39:19;16.30;99.90
54516;DHT22;40422;45.892;4.738;2023-10-13T05:42:03;16.30;99.90
54516;DHT22;40422;45.892;4.738;2023-10-13T05:44:47;16.30;99.90
54516;DHT22;40422;45.892;4.738;2023-10-13T05:47:34;16.30;99.90
54516;DHT22;40422;45.892;4.738;2023-10-13T05:50:11;16.40;99.90
54516;DHT22;40422;45.892;4.738;2023-10-13T05:52:46;16.40;99.90
54516;DHT22;40422;45.892;4.738;2023-10-13T05:55:31;16.40;99.90
54516;DHT22;40422;45.892;4.738;2023-10-13T05:58:15;16.40;99.90
54516;DHT22;40422;45.892;4.738;2023-10-13T06:00:59;16.50;99.90
54516;DHT22;40422;45.892;4.738;2023-10-13T06:03:44;16.50;99.90
54516;DHT22;40422;45.892;4.738;2023-10-13T06:06:28;16.50;99.90
54516;DHT22;40422;45.892;4.738;2023-10-13T06:09:12;16.50;99.90
54516;DHT22;40422;45.892;4.738;2023-10-13T06:11:56;16.60;99.90
54516;DHT22;40422;45.892;4.738;2023-10-13T06:14:39;16.60;99.90
54516;DHT22;40422;45.892;4.738;2023-10-13T06:17:24;16.60;99.90
54516;DHT22;40422;45.892;4.738;2023-10-13T06:20:08;16.60;99.90
54516;DHT22;40422;45.892;4.738;2023-10-13T06:22:52;16.60;99.90
54516;DHT22;40422;45.892;4.738;2023-10-13T06:25:38;16.60;99.90
54516;DHT22;40422;45.892;4.738;2023-10-13T06:28:22;16.60;99.90
54516;DHT22;40422;45.892;4.738;2023-10-13T06:31:07;16.70;99.90
54516;DHT22;40422;45.892;4.738;2023-10-13T06:33:33;16.80;99.90
54516;DHT22;40422;45.892;4.738;2023-10-13T06:36:02;17.00;99.90
54516;DHT22;40422;45.892;4.738;2023-10-13T06:38:27;17.10;99.90
54516;DHT22;40422;45.892;4.738;2023-10-13T06:41:03;17.10;99.90
54516;DHT22;40422;45.892;4.738;2023-10-13T06:43:36;17.30;99.90
54516;DHT22;40422;45.892;4.738;2023-10-13T06:46:09;17.40;99.90
54516;DHT22;40422;45.892;4.738;2023-10-13T06:48:40;17.40;99.90
54516;DHT22;40422;45.892;4.738;2023-10-13T06:51:06;17.50;99.90
54516;DHT22;40422;45.892;4.738;2023-10-13T06:53:47;17.60;99.90
54516;DHT22;40422;45.892;4.738;2023-10-13T06:56:17;17.60;99.90
54516;DHT22;40422;45.892;4.738;2023-10-13T06:58:55;17.50;99.90
54516;DHT22;40422;45.892;4.738;2023-10-13T07:01:30;17.50;99.90
54516;DHT22;40422;45.892;4.738;2023-10-13T07:03:57;17.50;99.90
54516;DHT22;40422;45.892;4.738;2023-10-13T07:06:27;17.60;99.90
54516;DHT22;40422;45.892;4.738;2023-10-13T07:08:53;17.70;99.90
54516;DHT22;40422;45.892;4.738;2023-10-13T07:11:26;17.80;99.90
54516;DHT22;40422;45.892;4.738;2023-10-13T07:14:07;17.90;99.90
54516;DHT22;40422;45.892;4.738;2023-10-13T07:16:43;18.00;99.90
54516;DHT22;40422;45.892;4.738;2023-10-13T07:19:30;18.10;99.90
54516;DHT22;40422;45.892;4.738;2023-10-13T07:21:57;18.20;99.90
54516;DHT22;40422;45.892;4.738;2023-10-13T07:24:47;18.30;99.90
54516;DHT22;40422;45.892;4.738;2023-10-13T07:27:20;18.40;99.90
54516;DHT22;40422;45.892;4.738;2023-10-13T07:29:51;18.50;99.90
54516;DHT22;40422;45.892;4.738;2023-10-13T07:32:39;18.60;99.90
54516;DHT22;40422;45.892;4.738;2023-10-13T07:35:14;18.80;99.90
54516;DHT22;40422;45.892;4.738;2023-10-13T07:37:41;18.80;99.90
54516;DHT22;40422;45.892;4.738;2023-10-13T07:40:10;18.90;99.90
54516;DHT22;40422;45.892;4.738;2023-10-13T07:42:55;18.90;99.90
54516;DHT22;40422;45.892;4.738;2023-10-13T07:45:28;19.00;99.90
54516;DHT22;40422;45.892;4.738;2023-10-13T07:48:06;19.20;99.90
54516;DHT22;40422;45.892;4.738;2023-10-13T07:50:44;19.20;99.90
54516;DHT22;40422;45.892;4.738;2023-10-13T07:53:11;19.30;99.90
54516;DHT22;40422;45.892;4.738;2023-10-13T07:55:51;19.40;99.90
54516;DHT22;40422;45.892;4.738;2023-10-13T07:58:24;19.60;99.90
54516;DHT22;40422;45.892;4.738;2023-10-13T08:00:53;19.60;99.90
54516;DHT22;40422;45.892;4.738;2023-10-13T08:03:25;19.60;99.90
54516;DHT22;40422;45.892;4.738;2023-10-13T08:06:00;19.70;99.90
54516;DHT22;40422;45.892;4.738;2023-10-13T08:08:44;19.80;99.90
54516;DHT22;40422;45.892;4.738;2023-10-13T08:11:16;19.90;99.90
54516;DHT22;40422;45.892;4.738;2023-10-13T08:13:55;20.00;99.90
54516;DHT22;40422;45.892;4.738;2023-10-13T08:16:25;20.10;99.90
54516;DHT22;40422;45.892;4.738;2023-10-13T08:19:14;20.10;99.90
54516;DHT22;40422;45.892;4.738;2023-10-13T08:21:43;20.20;99.90
54516;DHT22;40422;45.892;4.738;2023-10-13T08:24:17;20.30;99.90
54516;DHT22;40422;45.892;4.738;2023-10-13T08:27:01;20.40;99.90
54516;DHT22;40422;45.892;4.738;2023-10-13T08:29:46;20.60;99.90
54516;DHT22;40422;45.892;4.738;2023-10-13T08:32:22;20.60;99.90
54516;DHT22;40422;45.892;4.738;2023-10-13T08:34:47;20.60;99.90
54516;DHT22;40422;45.892;4.738;2023-10-13T08:37:13;20.70;99.90
54516;DHT22;40422;45.892;4.738;2023-10-13T08:39:53;20.70;99.90
54516;DHT22;40422;45.892;4.738;2023-10-13T08:45:11;21.00;99.90
54516;DHT22;40422;45.892;4.738;2023-10-13T08:47:53;21.10;99.90
54516;DHT22;40422;45.892;4.738;2023-10-13T08:50:35;21.10;99.90
54516;DHT22;40422;45.892;4.738;2023-10-13T08:58:45;21.30;99.90
54516;DHT22;40422;45.892;4.738;2023-10-13T09:09:15;21.80;99.90
54516;DHT22;40422;45.892;4.738;2023-10-13T09:11:55;21.90;99.90
54516;DHT22;40422;45.892;4.738;2023-10-13T09:14:37;22.10;99.90
54516;DHT22;40422;45.892;4.738;2023-10-13T09:17:07;22.20;99.90
54516;DHT22;40422;45.892;4.738;2023-10-13T09:19:51;22.30;99.90
54516;DHT22;40422;45.892;4.738;2023-10-13T09:22:29;22.50;99.90
54516;DHT22;40422;45.892;4.738;2023-10-13T09:25:02;22.50;99.90
54516;DHT22;40422;45.892;4.738;2023-10-13T09:27:32;22.70;99.90
54516;DHT22;40422;45.892;4.738;2023-10-13T09:30:02;22.80;99.90
54516;DHT22;40422;45.892;4.738;2023-10-13T09:32:47;22.90;99.90
54516;DHT22;40422;45.892;4.738;2023-10-13T09:35:19;23.00;99.90
54516;DHT22;40422;45.892;4.738;2023-10-13T09:37:49;23.10;99.90
54516;DHT22;40422;45.892;4.738;2023-10-13T09:40:18;23.30;99.90
54516;DHT22;40422;45.892;4.738;2023-10-13T09:42:55;23.40;99.90
54516;DHT22;40422;45.892;4.738;2023-10-13T09:45:30;23.50;99.10
54516;DHT22;40422;45.892;4.738;2023-10-13T09:48:03;23.60;99.40
54516;DHT22;40422;45.892;4.738;2023-10-13T09:50:43;23.70;99.10
54516;DHT22;40422;45.892;4.738;2023-10-13T09:53:10;23.80;98.70
54516;DHT22;40422;45.892;4.738;2023-10-13T09:55:44;23.90;98.20
54516;DHT22;40422;45.892;4.738;2023-10-13T09:58:12;24.10;98.00
54516;DHT22;40422;45.892;4.738;2023-10-13T10:00:50;24.10;97.50
54516;DHT22;40422;45.892;4.738;2023-10-13T10:03:44;24.20;96.90
54516;DHT22;40422;45.892;4.738;2023-10-13T10:06:22;24.20;96.90
54516;DHT22;40422;45.892;4.738;2023-10-13T10:09:04;24.30;96.60
54516;DHT22;40422;45.892;4.738;2023-10-13T10:17:10;24.50;95.20
54516;DHT22;40422;45.892;4.738;2023-10-13T10:22:12;24.70;94.50
54516;DHT22;40422;45.892;4.738;2023-10-13T10:24:56;24.80;94.40
54516;DHT22;40422;45.892;4.738;2023-10-13T10:27:27;24.90;93.80
54516;DHT22;40422;45.892;4.738;2023-10-13T10:29:55;24.90;93.80
54516;DHT22;40422;45.892;4.738;2023-10-13T10:32:20;25.10;93.60
54516;DHT22;40422;45.892;4.738;2023-10-13T10:34:47;25.20;93.50
54516;DHT22;40422;45.892;4.738;2023-10-13T10:37:13;25.30;93.30
54516;DHT22;40422;45.892;4.738;2023-10-13T10:39:39;25.50;93.00
54516;DHT22;40422;45.892;4.738;2023-10-13T10:42:12;25.50;92.90
54516;DHT22;40422;45.892;4.738;2023-10-13T10:44:42;25.30;93.00
54516;DHT22;40422;45.892;4.738;2023-10-13T10:47:12;25.30;93.50
54516;DHT22;40422;45.892;4.738;2023-10-13T10:49:45;25.40;93.60
54516;DHT22;40422;45.892;4.738;2023-10-13T10:52:16;25.50;93.20
54516;DHT22;40422;45.892;4.738;2023-10-13T10:54:44;25.70;93.30
54516;DHT22;40422;45.892;4.738;2023-10-13T10:57:17;25.80;93.20
54516;DHT22;40422;45.892;4.738;2023-10-13T10:59:46;25.80;93.00
54516;DHT22;40422;45.892;4.738;2023-10-13T11:02:12;25.80;93.20
54516;DHT22;40422;45.892;4.738;2023-10-13T11:04:43;25.80;93.20
54516;DHT22;40422;45.892;4.738;2023-10-13T11:07:30;25.90;92.90
54516;DHT22;40422;45.892;4.738;2023-10-13T11:10:11;26.00;92.50
54516;DHT22;40422;45.892;4.738;2023-10-13T11:12:59;26.20;92.80
54516;DHT22;40422;45.892;4.738;2023-10-13T11:15:48;26.50;92.50
54516;DHT22;40422;45.892;4.738;2023-10-13T11:18:28;26.70;91.90
54516;DHT22;40422;45.892;4.738;2023-10-13T11:20:59;26.70;91.60
54516;DHT22;40422;45.892;4.738;2023-10-13T11:23:25;26.60;91.30
54516;DHT22;40422;45.892;4.738;2023-10-13T11:25:59;26.60;91.30
54516;DHT22;40422;45.892;4.738;2023-10-13T11:28:25;26.60;91.30
54516;DHT22;40422;45.892;4.738;2023-10-13T11:30:58;26.60;91.80
54516;DHT22;40422;45.892;4.738;2023-10-13T11:33:44;26.70;91.90
54516;DHT22;40422;45.892;4.738;2023-10-13T11:36:12;26.70;92.00
54516;DHT22;40422;45.892;4.738;2023-10-13T11:38:43;26.80;91.60
54516;DHT22;40422;45.892;4.738;2023-10-13T11:41:15;26.80;91.30
54516;DHT22;40422;45.892;4.738;2023-10-13T11:43:44;26.90;91.80
54516;DHT22;40422;45.892;4.738;2023-10-13T11:46:14;26.90;91.90
54516;DHT22;40422;45.892;4.738;2023-10-13T11:48:41;26.90;91.80
54516;DHT22;40422;45.892;4.738;2023-10-13T11:51:12;27.00;91.60
54516;DHT22;40422;45.892;4.738;2023-10-13T11:53:50;26.90;91.70
54516;DHT22;40422;45.892;4.738;2023-10-13T11:56:21;26.80;91.90
54516;DHT22;40422;45.892;4.738;2023-10-13T11:58:48;26.90;91.60
54516;DHT22;40422;45.892;4.738;2023-10-13T12:01:14;26.80;91.40
54516;DHT22;40422;45.892;4.738;2023-10-13T12:03:40;26.80;91.30
54516;DHT22;40422;45.892;4.738;2023-10-13T12:06:25;26.80;91.50
54516;DHT22;40422;45.892;4.738;2023-10-13T12:09:08;26.80;91.40
54516;DHT22;40422;45.892;4.738;2023-10-13T12:11:43;26.70;91.50
54516;DHT22;40422;45.892;4.738;2023-10-13T12:14:13;26.90;91.00
54516;DHT22;40422;45.892;4.738;2023-10-13T12:16:55;27.10;90.80
54516;DHT22;40422;45.892;4.738;2023-10-13T12:19:22;27.20;90.30
54516;DHT22;40422;45.892;4.738;2023-10-13T12:21:53;27.30;90.70
54516;DHT22;40422;45.892;4.738;2023-10-13T12:24:22;27.30;90.50
54516;DHT22;40422;45.892;4.738;2023-10-13T12:26:57;27.30;90.30
54516;DHT22;40422;45.892;4.738;2023-10-13T12:29:23;27.30;90.30
54516;DHT22;40422;45.892;4.738;2023-10-13T12:31:57;27.40;90.10
54516;DHT22;40422;45.892;4.738;2023-10-13T12:34:37;27.50;89.70
54516;DHT22;40422;45.892;4.738;2023-10-13T12:37:23;27.60;89.00
54516;DHT22;40422;45.892;4.738;2023-10-13T12:40:05;27.50;89.00
54516;DHT22;40422;45.892;4.738;2023-10-13T12:43:05;27.50;89.10
54516;DHT22;40422;45.892;4.738;2023-10-13T12:45:51;27.70;88.60
54516;DHT22;40422;45.892;4.738;2023-10-13T12:48:36;27.70;88.10
54516;DHT22;40422;45.892;4.738;2023-10-13T12:51:21;27.70;88.00
54516;DHT22;40422;45.892;4.738;2023-10-13T12:53:56;27.60;88.40
54516;DHT22;40422;45.892;4.738;2023-10-13T12:56:30;27.60;88.30
54516;DHT22;40422;45.892;4.738;2023-10-13T12:58:57;27.70;88.50
54516;DHT22;40422;45.892;4.738;2023-10-13T13:01:25;27.80;87.40
54516;DHT22;40422;45.892;4.738;2023-10-13T13:03:58;27.70;86.90
54516;DHT22;40422;45.892;4.738;2023-10-13T13:06:25;27.70;87.60
54516;DHT22;40422;45.892;4.738;2023-10-13T13:08:54;27.70;88.40
54516;DHT22;40422;45.892;4.738;2023-10-13T13:11:20;27.70;88.60
54516;DHT22;40422;45.892;4.738;2023-10-13T13:13:46;27.70;88.10
54516;DHT22;40422;45.892;4.738;2023-10-13T13:16:13;27.80;88.20
54516;DHT22;40422;45.892;4.738;2023-10-13T13:18:38;27.80;87.60
54516;DHT22;40422;45.892;4.738;2023-10-13T13:21:05;27.90;87.10
54516;DHT22;40422;45.892;4.738;2023-10-13T13:23:37;27.80;86.60
54516;DHT22;40422;45.892;4.738;2023-10-13T13:26:05;27.70;86.60
54516;DHT22;40422;45.892;4.738;2023-10-13T13:28:41;27.70;87.60
54516;DHT22;40422;45.892;4.738;2023-10-13T13:31:08;27.60;87.90
54516;DHT22;40422;45.892;4.738;2023-10-13T13:33:35;27.60;87.30
54516;DHT22;40422;45.892;4.738;2023-10-13T13:36:07;27.80;87.20
54516;DHT22;40422;45.892;4.738;2023-10-13T13:38:38;27.90;86.70
54516;DHT22;40422;45.892;4.738;2023-10-13T13:43:52;27.70;85.90
54516;DHT22;40422;45.892;4.738;2023-10-13T13:46:23;27.80;86.20
54516;DHT22;40422;45.892;4.738;2023-10-13T13:48:59;27.70;85.80
54516;DHT22;40422;45.892;4.738;2023-10-13T13:51:26;27.60;85.70
54516;DHT22;40422;45.892;4.738;2023-10-13T13:53:55;27.20;86.20
54516;DHT22;40422;45.892;4.738;2023-10-13T13:56:22;26.80;86.80
54516;DHT22;40422;45.892;4.738;2023-10-13T13:58:51;26.70;87.70
54516;DHT22;40422;45.892;4.738;2023-10-13T14:01:18;26.80;87.50
54516;DHT22;40422;45.892;4.738;2023-10-13T14:03:46;26.90;86.70
54516;DHT22;40422;45.892;4.738;2023-10-13T14:06:19;27.10;86.90
54516;DHT22;40422;45.892;4.738;2023-10-13T14:08:49;27.30;86.80
54516;DHT22;40422;45.892;4.738;2023-10-13T14:11:17;27.40;86.20
54516;DHT22;40422;45.892;4.738;2023-10-13T14:13:49;27.50;85.60
54516;DHT22;40422;45.892;4.738;2023-10-13T14:16:18;27.40;85.50
54516;DHT22;40422;45.892;4.738;2023-10-13T14:18:47;27.40;85.50
54516;DHT22;40422;45.892;4.738;2023-10-13T14:21:13;27.40;85.30
54516;DHT22;40422;45.892;4.738;2023-10-13T14:23:48;27.50;85.20
54516;DHT22;40422;45.892;4.738;2023-10-13T14:26:15;27.60;84.60
54516;DHT22;40422;45.892;4.738;2023-10-13T14:28:45;27.20;85.00
54516;DHT22;40422;45.892;4.738;2023-10-13T14:31:30;26.80;85.60
54516;DHT22;40422;45.892;4.738;2023-10-13T14:33:56;26.60;85.60
54516;DHT22;40422;45.892;4.738;2023-10-13T14:36:24;26.40;86.20
54516;DHT22;40422;45.892;4.738;2023-10-13T14:38:54;26.60;86.30
54516;DHT22;40422;45.892;4.738;2023-10-13T14:41:20;26.70;85.90
54516;DHT22;40422;45.892;4.738;2023-10-13T14:43:46;26.40;86.30
54516;DHT22;40422;45.892;4.738;2023-10-13T14:46:19;26.20;86.90
54516;DHT22;40422;45.892;4.738;2023-10-13T14:48:48;26.20;87.40
54516;DHT22;40422;45.892;4.738;2023-10-13T14:51:16;26.20;87.40
54516;DHT22;40422;45.892;4.738;2023-10-13T14:53:43;26.30;87.20
54516;DHT22;40422;45.892;4.738;2023-10-13T14:56:12;26.40;86.50
54516;DHT22;40422;45.892;4.738;2023-10-13T14:58:38;26.50;86.00
54516;DHT22;40422;45.892;4.738;2023-10-13T15:01:17;26.40;86.40
54516;DHT22;40422;45.892;4.738;2023-10-13T15:03:49;26.50;86.00
54516;DHT22;40422;45.892;4.738;2023-10-13T15:06:20;26.60;85.90
54516;DHT22;40422;45.892;4.738;2023-10-13T15:08:47;26.60;85.60
54516;DHT22;40422;45.892;4.738;2023-10-13T15:11:14;26.60;85.80
54516;DHT22;40422;45.892;4.738;2023-10-13T15:13:43;26.70;86.00
54516;DHT22;40422;45.892;4.738;2023-10-13T15:16:20;26.70;86.10
54516;DHT22;40422;45.892;4.738;2023-10-13T15:18:47;26.60;86.20
54516;DHT22;40422;45.892;4.738;2023-10-13T15:23:47;26.40;86.40
54516;DHT22;40422;45.892;4.738;2023-10-13T15:26:13;26.10;86.70
54516;DHT22;40422;45.892;4.738;2023-10-13T15:28:40;25.90;87.40
54516;DHT22;40422;45.892;4.738;2023-10-13T15:31:19;25.80;88.10
54516;DHT22;40422;45.892;4.738;2023-10-13T15:33:51;25.50;88.70
54516;DHT22;40422;45.892;4.738;2023-10-13T15:36:21;25.50;89.50
54516;DHT22;40422;45.892;4.738;2023-10-13T15:38:51;25.30;89.80
54516;DHT22;40422;45.892;4.738;2023-10-13T15:41:27;25.40;90.00
54516;DHT22;40422;45.892;4.738;2023-10-13T15:43:53;25.40;90.00
54516;DHT22;40422;45.892;4.738;2023-10-13T15:46:23;25.50;90.10
54516;DHT22;40422;45.892;4.738;2023-10-13T15:48:49;25.50;90.20
54516;DHT22;40422;45.892;4.738;2023-10-13T15:51:15;25.40;90.40
54516;DHT22;40422;45.892;4.738;2023-10-13T15:53:42;25.40;90.90
54516;DHT22;40422;45.892;4.738;2023-10-13T15:56:13;25.30;90.90
54516;DHT22;40422;45.892;4.738;2023-10-13T15:58:46;25.20;91.20
54516;DHT22;40422;45.892;4.738;2023-10-13T16:01:12;25.00;91.50
54516;DHT22;40422;45.892;4.738;2023-10-13T16:03:42;24.90;91.80
54516;DHT22;40422;45.892;4.738;2023-10-13T16:06:10;24.80;91.90
54516;DHT22;40422;45.892;4.738;2023-10-13T16:08:39;24.70;92.00
54516;DHT22;40422;45.892;4.738;2023-10-13T16:11:10;24.70;92.30
54516;DHT22;40422;45.892;4.738;2023-10-13T16:13:45;24.60;92.70
54516;DHT22;40422;45.892;4.738;2023-10-13T16:16:21;24.50;92.70
54516;DHT22;40422;45.892;4.738;2023-10-13T16:18:51;24.40;92.90
54516;DHT22;40422;45.892;4.738;2023-10-13T16:21:17;24.40;93.00
54516;DHT22;40422;45.892;4.738;2023-10-13T16:23:46;24.30;93.60
54516;DHT22;40422;45.892;4.738;2023-10-13T16:26:16;24.30;93.50
54516;DHT22;40422;45.892;4.738;2023-10-13T16:28:41;24.20;93.70
54516;DHT22;40422;45.892;4.738;2023-10-13T16:31:07;24.10;93.90
54516;DHT22;40422;45.892;4.738;2023-10-13T16:33:37;24.10;94.20
54516;DHT22;40422;45.892;4.738;2023-10-13T16:36:05;24.10;94.40
54516;DHT22;40422;45.892;4.738;2023-10-13T16:38:34;24.00;94.60
54516;DHT22;40422;45.892;4.738;2023-10-13T16:41:01;23.90;94.80
54516;DHT22;40422;45.892;4.738;2023-10-13T16:43:32;23.90;95.00
54516;DHT22;40422;45.892;4.738;2023-10-13T16:45:58;23.80;95.10
54516;DHT22;40422;45.892;4.738;2023-10-13T16:48:24;23.80;95.30
54516;DHT22;40422;45.892;4.738;2023-10-13T16:50:52;23.70;95.40
54516;DHT22;40422;45.892;4.738;2023-10-13T16:53:22;23.70;95.60
54516;DHT22;40422;45.892;4.738;2023-10-13T16:55:47;23.60;95.70
54516;DHT22;40422;45.892;4.738;2023-10-13T16:58:13;23.50;95.90
54516;DHT22;40422;45.892;4.738;2023-10-13T17:00:40;23.50;96.10
54516;DHT22;40422;45.892;4.738;2023-10-13T17:03:09;23.50;96.30
54516;DHT22;40422;45.892;4.738;2023-10-13T17:05:44;23.40;96.50
54516;DHT22;40422;45.892;4.738;2023-10-13T17:08:11;23.40;96.70
54516;DHT22;40422;45.892;4.738;2023-10-13T17:10:38;23.30;96.90
54516;DHT22;40422;45.892;4.738;2023-10-13T17:13:04;23.30;97.10
54516;DHT22;40422;45.892;4.738;2023-10-13T17:15:33;23.30;97.30
54516;DHT22;40422;45.892;4.738;2023-10-13T17:18:00;23.20;97.40
54516;DHT22;40422;45.892;4.738;2023-10-13T17:20:26;23.20;97.60
54516;DHT22;40422;45.892;4.738;2023-10-13T17:22:52;23.20;97.80
54516;DHT22;40422;45.892;4.738;2023-10-13T17:25:21;23.10;97.90
54516;DHT22;40422;45.892;4.738;2023-10-13T17:27:47;23.10;97.90
54516;DHT22;40422;45.892;4.738;2023-10-13T17:30:13;23.10;98.10
54516;DHT22;40422;45.892;4.738;2023-10-13T17:32:39;23.10;98.20
54516;DHT22;40422;45.892;4.738;2023-10-13T17:35:05;23.10;98.40
54516;DHT22;40422;45.892;4.738;2023-10-13T17:37:37;23.10;98.60
54516;DHT22;40422;45.892;4.738;2023-10-13T17:40:09;23.00;98.70
54516;DHT22;40422;45.892;4.738;2023-10-13T17:42:43;23.00;98.80
54516;DHT22;40422;45.892;4.738;2023-10-13T17:45:12;23.00;99.00
54516;DHT22;40422;45.892;4.738;2023-10-13T17:47:39;22.90;99.10
54516;DHT22;40422;45.892;4.738;2023-10-13T17:50:05;23.00;99.30
54516;DHT22;40422;45.892;4.738;2023-10-13T17:52:34;22.90;99.40
54516;DHT22;40422;45.892;4.738;2023-10-13T17:55:05;22.90;99.50
54516;DHT22;40422;45.892;4.738;2023-10-13T17:57:33;22.90;99.60
54516;DHT22;40422;45.892;4.738;2023-10-13T18:00:00;23.00;99.70
54516;DHT22;40422;45.892;4.738;2023-10-13T18:02:28;22.90;99.80
54516;DHT22;40422;45.892;4.738;2023-10-13T18:04:56;22.90;99.90
54516;DHT22;40422;45.892;4.738;2023-10-13T18:07:22;22.90;99.90
54516;DHT22;40422;45.892;4.738;2023-10-13T18:09:50;22.90;99.90
54516;DHT22;40422;45.892;4.738;2023-10-13T18:12:17;22.90;99.90
54516;DHT22;40422;45.892;4.738;2023-10-13T18:14:43;22.80;99.90
54516;DHT22;40422;45.892;4.738;2023-10-13T18:17:08;22.80;99.90
54516;DHT22;40422;45.892;4.738;2023-10-13T18:19:35;22.80;99.90
54516;DHT22;40422;45.892;4.738;2023-10-13T18:22:01;22.80;99.90
54516;DHT22;40422;45.892;4.738;2023-10-13T18:24:29;22.70;99.90
54516;DHT22;40422;45.892;4.738;2023-10-13T18:26:55;22.70;99.90
54516;DHT22;40422;45.892;4.738;2023-10-13T18:29:22;22.80;99.90
54516;DHT22;40422;45.892;4.738;2023-10-13T18:31:48;22.70;99.90
54516;DHT22;40422;45.892;4.738;2023-10-13T18:34:13;22.60;99.90
54516;DHT22;40422;45.892;4.738;2023-10-13T18:36:39;22.60;99.90
54516;DHT22;40422;45.892;4.738;2023-10-13T18:39:05;22.60;99.90
54516;DHT22;40422;45.892;4.738;2023-10-13T18:41:44;22.60;99.90
54516;DHT22;40422;45.892;4.738;2023-10-13T18:44:09;22.50;99.90
54516;DHT22;40422;45.892;4.738;2023-10-13T18:46:36;22.50;99.90
54516;DHT22;40422;45.892;4.738;2023-10-13T18:49:02;22.50;99.90
54516;DHT22;40422;45.892;4.738;2023-10-13T18:51:27;22.50;99.90
54516;DHT22;40422;45.892;4.738;2023-10-13T18:53:53;22.50;99.90
54516;DHT22;40422;45.892;4.738;2023-10-13T18:56:22;22.40;99.90
54516;DHT22;40422;45.892;4.738;2023-10-13T18:58:51;22.40;99.90
54516;DHT22;40422;45.892;4.738;2023-10-13T19:01:27;22.40;99.90
54516;DHT22;40422;45.892;4.738;2023-10-13T19:04:01;22.40;99.90
54516;DHT22;40422;45.892;4.738;2023-10-13T19:06:29;22.40;99.90
54516;DHT22;40422;45.892;4.738;2023-10-13T19:08:58;22.30;99.90
54516;DHT22;40422;45.892;4.738;2023-10-13T19:11:25;22.30;99.90
54516;DHT22;40422;45.892;4.738;2023-10-13T19:13:51;22.30;99.90
54516;DHT22;40422;45.892;4.738;2023-10-13T19:16:19;22.30;99.90
54516;DHT22;40422;45.892;4.738;2023-10-13T19:18:46;22.20;99.90
54516;DHT22;40422;45.892;4.738;2023-10-13T19:21:14;22.30;99.90
54516;DHT22;40422;45.892;4.738;2023-10-13T19:23:44;22.20;99.90
54516;DHT22;40422;45.892;4.738;2023-10-13T19:26:21;22.20;99.90
54516;DHT22;40422;45.892;4.738;2023-10-13T19:28:47;22.20;99.90
54516;DHT22;40422;45.892;4.738;2023-10-13T19:31:13;22.20;99.90
54516;DHT22;40422;45.892;4.738;2023-10-13T19:33:46;22.20;99.90
54516;DHT22;40422;45.892;4.738;2023-10-13T19:36:13;22.20;99.90